Time;durP1;ratioP1;P1;durP2;ratioP2;P2;SDS_P1;SDS_P2;PMS_P1;PMS_P2;Temp;Humidity;BMP_temperature;BMP_pressure;BME280_temperature;BME280_humidity;BME280_pressure;Samples;Min_cycle;Max_cycle;Signal;HPM_P1;HPM_P2
2021/07/31 00:00:47;;;;;;;3.45;2.22;;;27.80;50.50;;;;;;4953730;29;20143;-80
2021/07/31 00:03:13;;;;;;;1.35;1.25;;;27.70;50.20;;;;;;4953450;29;20587;-82
2021/07/31 00:05:39;;;;;;;0.80;0.80;;;28.00;50.70;;;;;;4953133;29;20475;-80
2021/07/31 00:08:05;;;;;;;1.30;1.20;;;28.30;50.90;;;;;;4953812;29;20142;-81
2021/07/31 00:10:31;;;;;;;1.95;0.98;;;28.40;50.90;;;;;;4953094;29;20170;-79
2021/07/31 00:12:57;;;;;;;1.27;1.17;;;28.10;52.80;;;;;;4935670;29;20047;-83
2021/07/31 00:15:23;;;;;;;1.13;1.02;;;27.90;53.60;;;;;;4953093;29;20039;-80
2021/07/31 00:17:49;;;;;;;2.03;1.77;;;27.80;53.80;;;;;;4954911;28;20182;-80
2021/07/31 00:20:15;;;;;;;0.88;0.88;;;27.70;54.40;;;;;;4939888;29;20031;-80
2021/07/31 00:22:42;;;;;;;0.73;0.73;;;27.60;54.90;;;;;;4957247;29;20041;-81
2021/07/31 00:25:08;;;;;;;1.48;1.30;;;27.60;55.40;;;;;;4956418;29;20171;-81
2021/07/31 00:27:34;;;;;;;0.60;0.60;;;27.60;55.90;;;;;;4956572;29;20090;-82
2021/07/31 00:30:00;;;;;;;0.98;0.95;;;27.40;56.60;;;;;;4956508;29;20031;-81
2021/07/31 00:32:25;;;;;;;1.30;1.20;;;27.30;56.90;;;;;;4956682;29;20102;-82
2021/07/31 00:34:51;;;;;;;1.90;1.75;;;27.20;57.20;;;;;;4956211;29;20069;-83
2021/07/31 00:37:17;;;;;;;0.68;0.68;;;27.30;57.10;;;;;;4956817;29;20513;-80
2021/07/31 00:39:43;;;;;;;1.50;1.40;;;27.40;56.80;;;;;;4956307;29;20499;-81
2021/07/31 00:42:09;;;;;;;1.42;1.35;;;27.20;56.00;;;;;;4956298;29;20035;-83
2021/07/31 00:44:36;;;;;;;0.70;0.70;;;27.00;56.10;;;;;;4956425;29;20399;-83
2021/07/31 00:47:04;;;;;;;1.05;1.00;;;27.10;56.00;;;;;;4956441;29;20152;-80
2021/07/31 00:49:31;;;;;;;2.25;2.05;;;26.60;57.10;;;;;;4956175;29;20035;-84
2021/07/31 00:51:58;;;;;;;19.45;1.40;;;26.80;56.90;;;;;;4956220;29;20031;-82
2021/07/31 00:54:24;;;;;;;0.60;0.60;;;26.90;54.90;;;;;;4955960;28;20352;-83
2021/07/31 00:56:50;;;;;;;3.78;1.38;;;26.80;54.20;;;;;;4956238;29;20067;-82
2021/07/31 00:59:16;;;;;;;2.70;1.98;;;26.70;54.90;;;;;;4956064;29;20102;-80
2021/07/31 01:01:42;;;;;;;1.13;1.05;;;26.80;54.40;;;;;;4956036;29;20066;-82
2021/07/31 01:04:08;;;;;;;0.70;0.70;;;26.90;53.80;;;;;;4955978;29;20033;-85
2021/07/31 01:06:35;;;;;;;1.05;1.02;;;26.70;53.70;;;;;;4956031;29;20047;-82
2021/07/31 01:09:01;;;;;;;3.15;1.77;;;26.70;53.90;;;;;;4955614;29;20032;-79
2021/07/31 01:11:27;;;;;;;2.33;1.98;;;26.70;53.40;;;;;;4955879;29;20031;-80
2021/07/31 01:13:54;;;;;;;1.15;1.05;;;26.80;53.70;;;;;;4955832;29;20058;-79
2021/07/31 01:16:20;;;;;;;3.55;2.05;;;26.70;53.50;;;;;;4955719;29;20484;-82
2021/07/31 01:18:46;;;;;;;0.90;0.90;;;26.60;53.30;;;;;;4955631;29;20038;-83
2021/07/31 01:21:36;;;;;;;1.08;1.02;;;26.50;53.20;;;;;;4938475;29;20070;-81
2021/07/31 01:24:03;;;;;;;1.38;1.30;;;26.40;53.50;;;;;;4955553;29;20043;-82
2021/07/31 01:26:28;;;;;;;0.93;0.93;;;26.60;52.90;;;;;;4955269;29;20392;-81
2021/07/31 01:28:54;;;;;;;0.90;0.90;;;26.40;53.40;;;;;;4954801;28;20479;-80
2021/07/31 01:31:20;;;;;;;0.98;0.95;;;26.50;53.20;;;;;;4955494;29;20106;-81
2021/07/31 01:33:46;;;;;;;1.80;1.25;;;26.60;53.20;;;;;;4937949;29;20154;-81
2021/07/31 01:36:11;;;;;;;4.22;2.03;;;26.50;53.30;;;;;;4955371;29;20043;-81
2021/07/31 01:38:37;;;;;;;1.58;1.35;;;26.40;54.00;;;;;;4955247;29;20043;-83
2021/07/31 01:41:03;;;;;;;2.17;1.98;;;26.50;54.90;;;;;;4955411;29;20023;-83
2021/07/31 01:43:29;;;;;;;4.97;2.63;;;26.40;55.40;;;;;;4955293;29;20062;-80
2021/07/31 01:45:54;;;;;;;1.67;1.50;;;26.40;56.10;;;;;;4955103;29;20031;-84
2021/07/31 01:48:20;;;;;;;1.05;1.02;;;26.30;56.90;;;;;;4955135;29;20058;-83
2021/07/31 01:50:46;;;;;;;1.92;1.83;;;26.20;58.00;;;;;;4955116;29;20079;-81
2021/07/31 01:53:12;;;;;;;2.50;1.35;;;26.30;58.00;;;;;;4954842;29;20500;-83
2021/07/31 01:55:38;;;;;;;1.27;1.17;;;26.30;58.20;;;;;;4955152;28;20032;-83
2021/07/31 01:58:03;;;;;;;1.13;1.02;;;26.20;58.00;;;;;;4954720;29;20062;-81
2021/07/31 02:00:29;;;;;;;2.42;2.22;;;26.30;58.50;;;;;;4954843;29;20033;-79
2021/07/31 02:02:55;;;;;;;1.67;1.58;;;26.20;58.40;;;;;;4955088;29;20493;-80
2021/07/31 02:05:21;;;;;;;1.58;1.48;;;26.10;58.90;;;;;;4954516;29;20098;-81
2021/07/31 02:07:46;;;;;;;2.53;2.25;;;26.00;59.60;;;;;;4937707;29;20083;-80
2021/07/31 02:10:12;;;;;;;0.70;0.70;;;25.80;60.50;;;;;;4954578;29;20102;-82
2021/07/31 02:12:38;;;;;;;1.35;1.25;;;25.80;60.90;;;;;;4954651;29;20115;-80
2021/07/31 02:15:04;;;;;;;1.23;1.15;;;25.80;60.40;;;;;;4937301;29;20043;-83
2021/07/31 02:17:32;;;;;;;8.70;1.77;;;25.80;60.90;;;;;;4937634;29;20094;-79
2021/07/31 02:19:58;;;;;;;3.38;2.10;;;25.90;60.70;;;;;;4954453;29;20433;-81
2021/07/31 02:22:24;;;;;;;1.65;1.55;;;25.90;60.30;;;;;;4954916;29;20035;-79
2021/07/31 02:24:50;;;;;;;0.85;0.85;;;25.80;60.80;;;;;;4954570;29;20177;-82
2021/07/31 02:27:15;;;;;;;1.40;1.30;;;25.70;61.30;;;;;;4954593;29;20042;-79
2021/07/31 02:29:41;;;;;;;1.90;1.50;;;25.60;61.50;;;;;;4954101;29;20039;-82
2021/07/31 02:32:08;;;;;;;1.35;1.25;;;25.50;61.90;;;;;;4954512;29;20427;-82
2021/07/31 02:34:33;;;;;;;1.20;1.13;;;25.30;62.60;;;;;;4954458;29;20046;-83
2021/07/31 02:36:59;;;;;;;3.53;1.85;;;25.40;62.70;;;;;;4954467;29;20039;-81
2021/07/31 02:39:25;;;;;;;2.42;2.22;;;25.40;62.80;;;;;;4937057;28;20050;-80
2021/07/31 02:41:50;;;;;;;0.93;0.93;;;25.50;62.90;;;;;;4953842;29;20043;-81
2021/07/31 02:44:16;;;;;;;1.20;1.08;;;25.50;63.30;;;;;;4954654;29;20032;-84
2021/07/31 02:46:42;;;;;;;1.08;1.05;;;25.40;63.40;;;;;;4954303;29;20035;-82
2021/07/31 02:49:07;;;;;;;2.85;2.65;;;25.30;64.20;;;;;;4954037;29;20039;-82
2021/07/31 02:51:33;;;;;;;1.75;1.55;;;25.20;63.90;;;;;;4954547;29;20503;-82
2021/07/31 02:53:59;;;;;;;4.28;1.95;;;25.10;64.40;;;;;;4953856;28;20039;-82
2021/07/31 02:56:25;;;;;;;1.73;1.40;;;25.30;64.30;;;;;;4954186;29;20035;-81
2021/07/31 02:58:51;;;;;;;2.45;1.42;;;25.10;64.10;;;;;;4953766;29;20051;-83
2021/07/31 03:01:17;;;;;;;4.32;1.73;;;25.20;63.70;;;;;;4953913;29;20042;-80
2021/07/31 03:03:42;;;;;;;2.28;2.08;;;25.00;64.30;;;;;;4953704;29;20494;-81
2021/07/31 03:06:08;;;;;;;0.90;0.90;;;24.80;64.60;;;;;;4953855;29;20106;-81
2021/07/31 03:08:34;;;;;;;1.05;1.02;;;24.80;64.40;;;;;;4953301;29;20035;-81
2021/07/31 03:11:05;;;;;;;1.38;1.27;;;25.00;63.20;;;;;;4954092;29;20031;-79
2021/07/31 03:13:31;;;;;;;1.00;1.00;;;25.00;63.10;;;;;;4953718;29;20067;-81
2021/07/31 03:15:57;;;;;;;5.55;2.95;;;25.00;63.50;;;;;;4953820;29;20439;-82
2021/07/31 03:18:23;;;;;;;1.00;1.00;;;24.80;63.80;;;;;;4953616;29;20548;-81
2021/07/31 03:20:51;;;;;;;1.08;1.02;;;24.70;65.20;;;;;;4953547;29;20031;-81
2021/07/31 03:23:19;;;;;;;1.00;1.00;;;24.90;65.10;;;;;;4936303;29;20050;-80
2021/07/31 03:25:45;;;;;;;1.63;1.52;;;24.90;64.20;;;;;;4953851;29;20106;-80
2021/07/31 03:28:12;;;;;;;1.77;1.35;;;24.90;64.30;;;;;;4953535;29;20039;-84
2021/07/31 03:30:45;;;;;;;0.95;0.95;;;24.80;64.20;;;;;;4953630;29;20395;-83
2021/07/31 03:33:12;;;;;;;3.70;2.90;;;24.50;64.10;;;;;;4953440;29;20057;-80
2021/07/31 03:35:39;;;;;;;1.75;1.65;;;24.50;64.20;;;;;;4953527;29;20031;-80
2021/07/31 03:38:05;;;;;;;2.45;2.25;;;24.40;64.10;;;;;;4953469;29;20038;-82
2021/07/31 03:40:31;;;;;;;5.15;3.05;;;24.30;64.10;;;;;;4953483;29;20032;-83
2021/07/31 03:42:57;;;;;;;0.93;0.93;;;24.60;63.50;;;;;;4953500;29;20111;-79
2021/07/31 03:45:22;;;;;;;1.02;1.02;;;24.40;63.10;;;;;;4953021;29;20035;-83
2021/07/31 03:47:48;;;;;;;1.00;1.00;;;24.50;63.00;;;;;;4953590;29;20032;-80
2021/07/31 03:50:14;;;;;;;1.33;1.23;;;24.50;62.90;;;;;;4953584;29;20039;-82
2021/07/31 03:52:40;;;;;;;4.90;2.30;;;24.60;63.30;;;;;;4954962;28;20048;-84
2021/07/31 03:55:06;;;;;;;2.33;2.13;;;24.60;62.30;;;;;;4939875;29;20045;-82
2021/07/31 03:57:33;;;;;;;1.60;1.50;;;24.50;61.90;;;;;;4956898;29;20057;-81
2021/07/31 03:59:59;;;;;;;3.58;2.72;;;24.60;62.30;;;;;;4956978;29;20028;-80
2021/07/31 04:02:24;;;;;;;7.63;2.22;;;24.60;62.50;;;;;;4939954;29;20369;-82
2021/07/31 04:04:50;;;;;;;1.38;1.30;;;24.60;62.50;;;;;;4957080;29;20039;-81
2021/07/31 04:07:16;;;;;;;1.15;1.10;;;24.50;62.50;;;;;;4957420;29;20160;-80
2021/07/31 04:09:42;;;;;;;1.08;1.02;;;24.50;62.70;;;;;;4956662;29;20043;-81
2021/07/31 04:12:07;;;;;;;1.58;1.48;;;24.60;62.50;;;;;;4957191;29;20038;-82
2021/07/31 04:14:33;;;;;;;2.15;2.00;;;24.50;62.00;;;;;;4956966;29;20487;-82
2021/07/31 04:17:01;;;;;;;1.70;1.52;;;24.40;61.20;;;;;;4956831;29;20036;-81
2021/07/31 04:19:27;;;;;;;0.85;0.85;;;24.50;62.30;;;;;;4956430;29;20040;-81
2021/07/31 04:21:58;;;;;;;6.63;2.80;;;24.60;61.70;;;;;;4956885;29;20050;-81
2021/07/31 04:24:28;;;;;;;4.05;3.38;;;24.60;61.90;;;;;;4956594;29;20039;-84
2021/07/31 04:26:53;;;;;;;0.80;0.80;;;24.50;63.70;;;;;;4939642;29;20110;-83
2021/07/31 04:29:20;;;;;;;0.95;0.95;;;24.40;64.70;;;;;;4956113;29;20416;-82
2021/07/31 04:31:46;;;;;;;3.15;2.60;;;24.40;65.30;;;;;;4956516;29;20075;-80
2021/07/31 04:34:13;;;;;;;1.48;1.38;;;24.60;66.10;;;;;;4956481;29;20110;-79
2021/07/31 04:36:38;;;;;;;0.80;0.80;;;24.60;65.80;;;;;;4956974;29;20039;-81
2021/07/31 04:39:05;;;;;;;1.73;1.45;;;24.50;66.70;;;;;;4938877;29;20039;-83
2021/07/31 04:41:32;;;;;;;4.22;2.80;;;24.20;65.40;;;;;;4956469;29;20047;-81
2021/07/31 04:43:57;;;;;;;1.52;1.42;;;24.40;65.90;;;;;;4956460;29;20027;-81
2021/07/31 04:46:23;;;;;;;1.20;1.10;;;24.70;65.20;;;;;;4956476;29;20039;-81
2021/07/31 04:48:49;;;;;;;12.40;2.65;;;24.90;65.00;;;;;;4956193;29;20054;-79
2021/07/31 04:51:15;;;;;;;1.20;1.10;;;25.00;64.10;;;;;;4938777;29;20043;-80
2021/07/31 04:53:41;;;;;;;2.17;1.83;;;25.00;63.20;;;;;;4955760;28;20461;-83
2021/07/31 04:56:07;;;;;;;0.95;0.80;;;25.00;64.80;;;;;;4956433;29;20035;-80
2021/07/31 04:58:33;;;;;;;1.50;1.25;;;24.90;64.50;;;;;;4955910;29;20053;-81
2021/07/31 05:00:59;;;;;;;2.58;1.65;;;25.00;64.50;;;;;;4939101;29;20127;-82
2021/07/31 05:03:26;;;;;;;1.52;1.42;;;25.00;65.00;;;;;;4956026;28;20353;-83
2021/07/31 05:05:52;;;;;;;3.03;2.40;;;24.90;65.50;;;;;;4938655;29;20757;-82
2021/07/31 05:08:18;;;;;;;2.63;1.10;;;25.00;65.60;;;;;;4955736;29;20570;-82
2021/07/31 05:10:45;;;;;;;32.88;2.45;;;25.10;65.90;;;;;;4956076;29;20038;-80
2021/07/31 05:13:11;;;;;;;3.42;2.25;;;25.10;65.90;;;;;;4956050;29;20101;-80
2021/07/31 05:15:38;;;;;;;1.63;1.25;;;25.20;65.80;;;;;;4955849;29;20031;-84
2021/07/31 05:18:04;;;;;;;0.82;0.82;;;25.20;66.40;;;;;;4955451;29;20394;-83
2021/07/31 05:20:31;;;;;;;5.25;2.15;;;25.10;67.00;;;;;;4956097;29;20110;-83
2021/07/31 05:22:57;;;;;;;1.00;0.90;;;25.30;67.60;;;;;;4956316;29;20042;-81
2021/07/31 05:25:22;;;;;;;1.80;1.70;;;25.40;67.90;;;;;;4955879;29;20043;-81
2021/07/31 05:27:48;;;;;;;1.25;1.15;;;25.50;68.60;;;;;;4938420;29;20433;-78
2021/07/31 05:30:14;;;;;;;1.38;1.13;;;25.40;68.70;;;;;;4955342;29;20035;-81
2021/07/31 05:32:40;;;;;;;1.60;1.50;;;25.50;67.50;;;;;;4955543;29;20035;-85
2021/07/31 05:35:06;;;;;;;1.27;1.17;;;25.50;66.20;;;;;;4955169;29;20039;-79
2021/07/31 05:37:32;;;;;;;3.10;1.90;;;25.40;63.20;;;;;;4938080;29;20038;-82
2021/07/31 05:40:01;;;;;;;1.23;1.08;;;25.40;62.60;;;;;;4955239;29;20043;-81
2021/07/31 05:42:27;;;;;;;1.35;1.25;;;25.40;61.60;;;;;;4938123;29;20067;-82
2021/07/31 05:45:01;;;;;;;2.20;1.60;;;25.60;61.20;;;;;;4955237;29;20128;-80
2021/07/31 05:47:28;;;;;;;0.75;0.75;;;25.60;60.80;;;;;;4955174;29;20110;-82
2021/07/31 05:49:59;;;;;;;1.25;1.15;;;25.70;60.70;;;;;;4955158;29;20114;-84
2021/07/31 05:52:26;;;;;;;3.03;1.50;;;25.80;60.80;;;;;;4955447;29;20039;-81
2021/07/31 05:54:55;;;;;;;1.30;1.20;;;25.80;61.30;;;;;;4954782;28;20046;-82
2021/07/31 05:57:21;;;;;;;3.28;2.53;;;25.80;62.50;;;;;;4954628;29;20075;-84
2021/07/31 05:59:47;;;;;;;1.50;1.42;;;25.80;63.20;;;;;;4937756;29;20498;-82
2021/07/31 06:02:14;;;;;;;1.10;1.08;;;25.90;63.10;;;;;;4955039;29;20123;-81
2021/07/31 06:04:40;;;;;;;1.00;1.00;;;26.00;63.00;;;;;;4954793;29;20027;-80
2021/07/31 06:07:07;;;;;;;1.10;1.00;;;26.00;63.30;;;;;;4955283;29;20039;-82
2021/07/31 06:09:34;;;;;;;1.58;1.30;;;25.90;63.20;;;;;;4954689;29;20043;-81
2021/07/31 06:12:00;;;;;;;2.65;2.42;;;26.10;63.20;;;;;;4955007;29;20032;-83
2021/07/31 06:14:25;;;;;;;1.08;1.00;;;26.10;63.00;;;;;;4954045;28;20479;-81
2021/07/31 06:16:51;;;;;;;1.45;1.13;;;26.30;63.40;;;;;;4954134;29;20510;-81
2021/07/31 06:19:17;;;;;;;0.93;0.93;;;26.40;62.20;;;;;;4954633;29;20139;-82
2021/07/31 06:21:43;;;;;;;2.00;1.65;;;26.50;62.40;;;;;;4954411;29;20031;-82
2021/07/31 06:24:08;;;;;;;0.70;0.70;;;26.60;62.70;;;;;;4954597;29;20043;-83
2021/07/31 06:26:37;;;;;;;0.93;0.82;;;26.80;62.00;;;;;;4954602;29;20403;-82
2021/07/31 06:29:03;;;;;;;0.73;0.73;;;26.80;62.60;;;;;;4954533;29;20038;-81
2021/07/31 06:31:28;;;;;;;0.65;0.65;;;26.80;61.60;;;;;;4954512;29;20023;-81
2021/07/31 06:33:55;;;;;;;2.13;1.75;;;27.00;61.30;;;;;;4954062;29;20047;-85
2021/07/31 06:36:21;;;;;;;2.55;2.35;;;26.90;60.40;;;;;;4954613;29;20031;-81
2021/07/31 06:38:47;;;;;;;1.20;1.10;;;26.80;59.70;;;;;;4954244;29;20094;-85
2021/07/31 06:41:13;;;;;;;0.88;0.88;;;26.80;59.40;;;;;;4954212;29;20027;-84
2021/07/31 06:43:39;;;;;;;2.05;1.80;;;27.00;60.20;;;;;;4954059;29;20043;-80
2021/07/31 06:46:15;;;;;;;0.90;0.70;;;27.10;59.90;;;;;;4954263;29;20031;-81
2021/07/31 06:48:42;;;;;;;1.10;1.02;;;27.20;59.10;;;;;;4954042;29;20444;-81
2021/07/31 06:51:09;;;;;;;1.35;1.00;;;27.30;59.10;;;;;;4953983;29;20031;-82
2021/07/31 06:53:35;;;;;;;1.15;0.95;;;27.40;58.80;;;;;;4953472;28;20134;-83
2021/07/31 06:56:02;;;;;;;0.90;0.90;;;27.40;58.50;;;;;;4953892;29;20066;-82
2021/07/31 06:58:29;;;;;;;0.70;0.70;;;27.50;58.40;;;;;;4953674;29;20059;-82
2021/07/31 07:00:55;;;;;;;1.02;1.00;;;27.60;58.20;;;;;;4936990;29;20166;-80
2021/07/31 07:03:21;;;;;;;0.85;0.82;;;27.70;57.90;;;;;;4953731;29;20074;-81
2021/07/31 07:05:46;;;;;;;2.60;1.13;;;27.70;58.20;;;;;;4953798;29;20054;-84
2021/07/31 07:08:12;;;;;;;1.33;1.23;;;27.80;58.30;;;;;;4953836;29;20384;-80
2021/07/31 07:10:39;;;;;;;1.50;1.15;;;27.90;57.90;;;;;;4953709;29;20147;-80
2021/07/31 07:13:05;;;;;;;0.63;0.63;;;27.90;57.10;;;;;;4953812;29;20282;-83
2021/07/31 07:15:31;;;;;;;1.48;1.27;;;28.00;56.80;;;;;;4954324;29;20024;-80
2021/07/31 07:17:58;;;;;;;1.10;0.80;;;28.00;56.90;;;;;;4953884;29;20035;-80
2021/07/31 07:20:26;;;;;;;7.72;1.10;;;28.00;56.50;;;;;;4953701;29;20028;-80
2021/07/31 07:22:53;;;;;;;1.58;1.48;;;28.10;56.20;;;;;;4953912;29;20112;-81
2021/07/31 07:25:19;;;;;;;1.05;1.00;;;28.10;55.80;;;;;;4953442;29;20114;-82
2021/07/31 07:27:45;;;;;;;1.85;1.50;;;28.10;55.70;;;;;;4953678;29;20028;-81
2021/07/31 07:30:12;;;;;;;1.17;1.08;;;28.20;55.90;;;;;;4936120;29;20068;-81
2021/07/31 07:32:38;;;;;;;0.80;0.77;;;28.40;56.80;;;;;;4953431;29;20526;-84
2021/07/31 07:35:05;;;;;;;1.48;1.30;;;28.50;56.00;;;;;;4953162;29;20448;-81
2021/07/31 07:37:32;;;;;;;3.70;1.67;;;28.50;55.50;;;;;;4953507;29;20098;-84
2021/07/31 07:39:59;;;;;;;0.90;0.90;;;28.60;55.70;;;;;;4953298;29;20043;-82
2021/07/31 07:42:25;;;;;;;1.48;1.05;;;28.80;55.40;;;;;;4936144;29;20071;-83
2021/07/31 07:44:51;;;;;;;1.02;1.02;;;28.80;54.50;;;;;;4953545;29;20115;-82
2021/07/31 07:47:17;;;;;;;1.25;1.08;;;28.90;54.30;;;;;;4936265;29;20040;-83
2021/07/31 07:49:42;;;;;;;0.73;0.73;;;28.90;54.30;;;;;;4953252;29;20382;-85
2021/07/31 07:52:08;;;;;;;0.70;0.70;;;28.90;54.00;;;;;;4953592;29;20031;-83
2021/07/31 07:54:34;;;;;;;0.63;0.63;;;29.00;54.30;;;;;;4953396;28;20463;-83
2021/07/31 07:57:04;;;;;;;0.50;0.50;;;29.30;54.40;;;;;;4936015;28;20035;-82
2021/07/31 07:59:30;;;;;;;;;;;29.50;54.10;;;;;;4953879;29;20039;-82
2021/07/31 08:01:55;;;;;;;10.55;2.78;;;29.40;54.20;;;;;;4953232;29;19906;-81
2021/07/31 08:04:21;;;;;;;0.70;0.70;;;29.40;54.10;;;;;;4953075;29;20035;-83
2021/07/31 08:06:47;;;;;;;1.98;1.83;;;29.50;53.60;;;;;;4936274;29;20063;-80
2021/07/31 08:09:13;;;;;;;5.68;3.42;;;29.50;53.50;;;;;;4935732;29;20535;-82
2021/07/31 08:11:43;;;;;;;2.95;2.40;;;29.70;53.80;;;;;;4953397;29;20036;-82
2021/07/31 08:14:09;;;;;;;4.13;2.03;;;29.60;53.60;;;;;;4953297;29;20045;-84
2021/07/31 08:16:35;;;;;;;0.77;0.73;;;29.70;53.70;;;;;;4936072;29;20395;-80
2021/07/31 08:19:02;;;;;;;0.50;0.50;;;29.90;53.90;;;;;;4952842;29;20507;-83
2021/07/31 08:21:29;;;;;;;0.77;0.77;;;30.00;53.40;;;;;;4953242;29;20418;-83
2021/07/31 08:23:55;;;;;;;0.82;0.75;;;30.10;53.40;;;;;;4953076;29;20032;-81
2021/07/31 08:26:21;;;;;;;0.47;0.47;;;30.00;51.90;;;;;;4936046;29;20051;-83
2021/07/31 08:28:47;;;;;;;1.00;0.90;;;30.10;52.10;;;;;;4953071;29;20062;-81
2021/07/31 08:31:14;;;;;;;1.08;0.98;;;30.10;52.50;;;;;;4953299;29;20118;-84
2021/07/31 08:33:40;;;;;;;0.93;0.70;;;30.10;51.90;;;;;;4952765;29;20035;-80
2021/07/31 08:36:07;;;;;;;2.15;1.75;;;30.30;52.10;;;;;;4936459;29;20047;-81
2021/07/31 08:38:33;;;;;;;2.30;1.58;;;30.50;52.10;;;;;;4937053;29;20517;-81
2021/07/31 08:41:00;;;;;;;1.70;1.60;;;30.60;52.30;;;;;;4956404;29;20041;-83
2021/07/31 08:43:28;;;;;;;1.15;0.98;;;30.70;51.70;;;;;;4956710;29;20039;-83
2021/07/31 08:45:54;;;;;;;0.82;0.82;;;30.80;51.90;;;;;;4939195;29;20534;-83
2021/07/31 08:48:28;;;;;;;0.88;0.88;;;30.80;51.50;;;;;;4955948;29;20035;-82
2021/07/31 08:50:59;;;;;;;1.38;0.90;;;30.90;51.30;;;;;;4956578;29;20027;-82
2021/07/31 08:53:30;;;;;;;1.52;1.42;;;31.10;50.60;;;;;;4956061;28;20126;-84
2021/07/31 08:56:00;;;;;;;0.52;0.52;;;31.10;50.10;;;;;;4938930;29;20058;-84
2021/07/31 08:58:26;;;;;;;1.17;1.08;;;30.90;50.50;;;;;;4955827;29;20059;-83
2021/07/31 09:00:53;;;;;;;0.90;0.80;;;31.00;50.50;;;;;;4956193;29;20039;-81
2021/07/31 09:03:21;;;;;;;0.60;0.60;;;30.90;50.00;;;;;;4955848;29;20069;-80
2021/07/31 09:05:48;;;;;;;0.80;0.80;;;31.00;50.20;;;;;;4956449;29;20049;-84
2021/07/31 09:08:14;;;;;;;0.30;0.30;;;31.10;50.30;;;;;;4955815;29;20046;-81
2021/07/31 09:10:42;;;;;;;0.93;0.80;;;31.40;50.00;;;;;;4956036;29;20129;-84
2021/07/31 09:13:13;;;;;;;0.73;0.73;;;31.50;49.80;;;;;;4956006;29;20050;-82
2021/07/31 09:15:53;;;;;;;1.15;1.05;;;31.80;49.80;;;;;;4955845;29;20085;-81
2021/07/31 09:18:25;;;;;;;1.30;1.20;;;32.20;50.00;;;;;;4955766;29;20039;-82
2021/07/31 09:21:01;;;;;;;3.17;0.95;;;32.70;49.00;;;;;;4938548;29;20395;-82
2021/07/31 09:23:43;;;;;;;1.02;0.75;;;32.90;48.50;;;;;;4955633;29;20130;-80
2021/07/31 09:26:10;;;;;;;0.63;0.63;;;33.10;48.60;;;;;;4955753;29;20063;-84
2021/07/31 09:28:40;;;;;;;0.20;0.20;;;33.20;49.00;;;;;;4955302;29;20035;-84
2021/07/31 09:31:13;;;;;;;0.93;0.88;;;33.40;48.70;;;;;;4938426;29;20077;-85
2021/07/31 09:33:42;;;;;;;0.43;0.40;;;33.60;48.70;;;;;;4937961;29;20503;-85
2021/07/31 09:36:08;;;;;;;0.70;0.60;;;33.70;48.60;;;;;;4938294;29;20085;-82
2021/07/31 09:38:38;;;;;;;0.40;0.40;;;33.80;48.40;;;;;;4955389;29;20062;-82
2021/07/31 09:41:29;;;;;;;2.25;0.93;;;33.90;48.60;;;;;;4955188;29;20043;-82
2021/07/31 09:44:15;;;;;;;0.82;0.70;;;34.10;48.20;;;;;;4955378;29;20067;-84
2021/07/31 09:46:47;;;;;;;1.45;0.93;;;34.30;48.00;;;;;;4955230;29;20039;-82
2021/07/31 09:49:19;;;;;;;0.82;0.73;;;34.50;48.60;;;;;;4955017;28;20031;-83
2021/07/31 09:51:50;;;;;;;0.73;0.60;;;34.60;48.10;;;;;;4954810;29;20039;-82
2021/07/31 09:54:19;;;;;;;6.68;2.78;;;34.70;47.80;;;;;;4954855;28;20411;-81
2021/07/31 09:56:53;;;;;;;1.80;1.40;;;34.80;48.10;;;;;;4954872;29;20043;-83
2021/07/31 09:59:20;;;;;;;1.25;1.15;;;34.90;47.30;;;;;;4954733;29;20043;-83
2021/07/31 10:01:49;;;;;;;1.55;1.23;;;35.00;47.20;;;;;;4938123;29;20420;-81
2021/07/31 10:04:17;;;;;;;1.20;0.82;;;35.10;47.30;;;;;;4954655;29;20491;-80
2021/07/31 10:06:44;;;;;;;2.15;1.85;;;35.20;48.00;;;;;;4955093;29;20027;-83
2021/07/31 10:09:11;;;;;;;4.43;2.10;;;35.30;47.70;;;;;;4954910;29;20043;-83
2021/07/31 10:11:39;;;;;;;0.88;0.88;;;35.30;47.60;;;;;;4954633;29;20110;-85
2021/07/31 10:14:08;;;;;;;3.15;1.20;;;35.60;47.40;;;;;;4954544;29;20070;-83
2021/07/31 10:16:43;;;;;;;2.07;1.67;;;35.70;47.30;;;;;;4937137;29;20031;-84
2021/07/31 10:19:10;;;;;;;0.68;0.68;;;35.80;46.90;;;;;;4954067;29;20809;-84
2021/07/31 10:21:48;;;;;;;1.13;0.80;;;35.80;46.40;;;;;;4954620;29;20479;-84
2021/07/31 10:24:14;;;;;;;2.97;1.75;;;36.00;47.40;;;;;;4953814;29;20039;-83
2021/07/31 10:26:40;;;;;;;1.52;0.85;;;35.80;46.30;;;;;;4954226;29;20063;-82
2021/07/31 10:29:24;;;;;;;0.85;0.73;;;36.20;47.40;;;;;;4936812;29;20054;-84
2021/07/31 10:31:51;;;;;;;1.13;0.73;;;36.20;47.50;;;;;;4954399;29;20043;-84
2021/07/31 10:34:59;;;;;;;1.75;1.52;;;36.40;47.20;;;;;;4954254;29;20043;-81
2021/07/31 10:37:28;;;;;;;1.27;0.60;;;36.30;46.20;;;;;;4954672;29;20420;-81
2021/07/31 10:39:55;;;;;;;2.42;1.67;;;36.30;47.20;;;;;;4953814;29;20339;-83
2021/07/31 10:42:21;;;;;;;1.20;0.80;;;36.50;46.50;;;;;;4954017;29;20032;-83
2021/07/31 10:45:15;;;;;;;2.38;1.35;;;36.60;46.00;;;;;;4954290;29;20094;-82
2021/07/31 10:47:41;;;;;;;0.60;0.60;;;36.60;45.80;;;;;;4953756;29;20059;-85
2021/07/31 10:50:23;;;;;;;0.38;0.28;;;36.80;46.10;;;;;;4954147;29;20126;-84
2021/07/31 10:53:00;;;;;;;3.22;1.23;;;37.00;45.80;;;;;;4954234;29;20494;-84
2021/07/31 10:55:38;;;;;;;2.88;1.05;;;37.00;45.90;;;;;;4936520;29;20150;-82
2021/07/31 10:58:16;;;;;;;0.55;0.40;;;37.30;46.20;;;;;;4953376;29;20054;-84
2021/07/31 11:00:45;;;;;;;0.82;0.73;;;37.40;45.50;;;;;;4953786;28;20102;-85
2021/07/31 11:03:31;;;;;;;1.17;1.10;;;37.40;45.60;;;;;;4953733;29;20031;-84
2021/07/31 11:06:06;;;;;;;0.98;0.50;;;37.40;45.20;;;;;;4936064;28;20039;-81
2021/07/31 11:08:55;;;;;;;2.65;1.10;;;37.30;45.10;;;;;;4953787;29;20065;-83
2021/07/31 11:11:25;;;;;;;1.75;1.42;;;37.40;44.90;;;;;;4953722;29;20034;-82
2021/07/31 11:13:53;;;;;;;0.40;0.40;;;37.60;44.80;;;;;;4953340;29;20098;-82
2021/07/31 11:16:20;;;;;;;0.68;0.57;;;37.80;45.40;;;;;;4953662;29;20082;-83
2021/07/31 11:18:52;;;;;;;1.83;1.08;;;38.10;45.10;;;;;;4936295;29;20102;-81
2021/07/31 11:21:25;;;;;;;1.88;0.85;;;38.20;44.00;;;;;;4936307;29;20484;-83
2021/07/31 11:23:59;;;;;;;0.90;0.80;;;37.80;44.00;;;;;;4953458;29;20047;-82
2021/07/31 11:26:33;;;;;;;5.55;3.28;;;38.00;44.00;;;;;;4953828;29;20046;-84
2021/07/31 11:29:01;;;;;;;0.52;0.50;;;38.20;43.70;;;;;;4953763;29;20518;-81
2021/07/31 11:31:27;;;;;;;1.00;0.90;;;38.30;43.30;;;;;;4953445;29;20035;-83
2021/07/31 11:34:12;;;;;;;1.52;1.08;;;37.90;42.00;;;;;;4935727;29;20044;-81
2021/07/31 11:36:53;;;;;;;1.15;1.05;;;37.20;43.00;;;;;;4936208;29;20091;-81
2021/07/31 11:39:19;;;;;;;0.85;0.70;;;37.60;41.90;;;;;;4953594;29;20090;-84
2021/07/31 11:41:45;;;;;;;0.40;0.40;;;37.90;41.10;;;;;;4953301;29;20034;-80
2021/07/31 11:44:21;;;;;;;0.95;0.75;;;38.10;41.30;;;;;;4935750;29;20032;-82
2021/07/31 11:46:48;;;;;;;1.38;0.47;;;38.30;41.30;;;;;;4953372;29;20036;-82
2021/07/31 11:49:26;;;;;;;0.68;0.57;;;37.90;41.10;;;;;;4953363;29;20447;-80
2021/07/31 11:51:54;;;;;;;1.13;0.88;;;38.20;41.30;;;;;;4953655;29;20343;-82
2021/07/31 11:54:20;;;;;;;0.93;0.60;;;38.10;41.10;;;;;;4952919;28;20047;-84
2021/07/31 11:56:47;;;;;;;0.60;0.60;;;38.30;41.40;;;;;;4953275;29;20094;-83
2021/07/31 11:59:21;;;;;;;0.52;0.52;;;38.30;40.60;;;;;;4953451;29;20130;-81
2021/07/31 12:01:48;;;;;;;2.35;0.75;;;38.20;40.90;;;;;;4953220;29;20119;-82
2021/07/31 12:04:13;;;;;;;1.75;1.00;;;38.60;41.60;;;;;;4952763;29;20494;-80
2021/07/31 12:06:44;;;;;;;0.65;0.52;;;38.70;42.00;;;;;;4953098;29;20521;-81
2021/07/31 12:09:22;;;;;;;0.32;0.32;;;39.10;41.70;;;;;;4953001;29;20110;-83
2021/07/31 12:11:50;;;;;;;0.75;0.50;;;39.10;40.90;;;;;;4953211;29;20034;-81
2021/07/31 12:14:34;;;;;;;1.30;0.75;;;38.90;41.30;;;;;;4955190;28;20075;-81
2021/07/31 12:17:16;;;;;;;0.40;0.30;;;39.10;41.50;;;;;;4956546;29;20035;-84
2021/07/31 12:19:44;;;;;;;0.50;0.50;;;39.30;41.10;;;;;;4956593;29;20078;-83
2021/07/31 12:22:18;;;;;;;2.70;1.23;;;39.30;40.60;;;;;;4956981;29;20475;-83
2021/07/31 12:24:44;;;;;;;2.30;0.68;;;38.40;39.60;;;;;;4956411;29;20106;-83
2021/07/31 12:27:10;;;;;;;1.80;1.65;;;39.00;39.70;;;;;;4956924;29;20027;-82
2021/07/31 12:29:38;;;;;;;0.50;0.50;;;39.10;39.50;;;;;;4938973;29;20089;-83
2021/07/31 12:32:26;;;;;;;0.20;0.20;;;39.30;39.80;;;;;;4956442;29;20027;-81
2021/07/31 12:34:54;;;;;;;1.58;0.70;;;39.20;38.90;;;;;;4938965;29;20047;-84
2021/07/31 12:37:21;;;;;;;0.30;0.30;;;39.20;38.90;;;;;;4939329;29;20047;-81
2021/07/31 12:39:46;;;;;;;3.55;1.38;;;39.60;39.50;;;;;;4956361;29;20050;-83
2021/07/31 12:42:13;;;;;;;0.45;0.40;;;38.90;38.00;;;;;;4956065;29;20035;-84
2021/07/31 12:44:39;;;;;;;2.60;0.88;;;38.90;38.40;;;;;;4956450;29;20439;-85
2021/07/31 12:47:06;;;;;;;0.52;0.52;;;38.90;38.40;;;;;;4956277;29;20035;-85
2021/07/31 12:49:33;;;;;;;0.28;0.28;;;39.40;38.40;;;;;;4938854;29;20062;-84
2021/07/31 12:51:59;;;;;;;0.32;0.32;;;39.80;38.70;;;;;;4956684;29;20094;-82